Time;durP1;ratioP1;P1;durP2;ratioP2;P2;SDS_P1;SDS_P2;PMS_P1;PMS_P2;Temp;Humidity;BMP_temperature;BMP_pressure;BME280_temperature;BME280_humidity;BME280_pressure;Samples;Min_cycle;Max_cycle;Signal;HPM_P1;HPM_P2
2022/06/13 00:02:58;;;;;;;2.72;1.08;;;;;;;16.75;100.00;98405.63;15267175;19;20022;-58
2022/06/13 00:08:10;;;;;;;1.70;0.80;;;;;;;16.72;100.00;98403.28;15277885;19;20049;-60
2022/06/13 00:13:15;;;;;;;3.22;1.10;;;;;;;16.70;100.00;98397.22;15275702;19;20355;-56
2022/06/13 00:18:24;;;;;;;1.90;0.90;;;;;;;16.62;100.00;98404.50;15274149;19;20023;-52
2022/06/13 00:23:29;;;;;;;2.95;0.80;;;;;;;16.53;100.00;98408.41;15263894;19;20019;-56
2022/06/13 00:28:34;;;;;;;2.92;0.80;;;;;;;16.45;100.00;98401.28;15274804;19;20026;-55
2022/06/13 00:33:42;;;;;;;4.15;0.90;;;;;;;16.40;100.00;98403.75;15264707;19;20355;-57
2022/06/13 00:38:48;;;;;;;2.25;0.90;;;;;;;16.30;100.00;98390.50;15275689;19;20011;-59
2022/06/13 00:43:54;;;;;;;3.33;0.80;;;;;;;16.23;100.00;98384.19;15272395;19;20020;-60
2022/06/13 00:49:05;;;;;;;3.42;0.77;;;;;;;16.14;100.00;98388.91;15275313;19;20018;-57
2022/06/13 00:54:10;;;;;;;3.95;1.00;;;;;;;15.75;100.00;98392.13;15285662;19;20017;-60
2022/06/13 00:59:19;;;;;;;4.07;1.10;;;;;;;15.67;100.00;98393.09;15289827;19;20018;-53
2022/06/13 01:04:26;;;;;;;3.97;1.30;;;;;;;15.83;100.00;98389.25;15285331;19;20511;-59
2022/06/13 01:15:12;;;;;;;3.13;1.13;;;;;;;16.20;100.00;98381.84;15288208;19;20018;-56
2022/06/13 01:20:33;;;;;;;2.97;1.00;;;;;;;16.32;100.00;98396.56;15279338;19;20341;-63
2022/06/13 01:25:57;;;;;;;4.07;1.20;;;;;;;16.43;100.00;98397.03;15288747;19;20022;-58
2022/06/13 01:31:23;;;;;;;4.18;1.08;;;;;;;16.41;100.00;98394.53;15284864;19;20098;-54
2022/06/13 01:36:43;;;;;;;3.00;1.10;;;;;;;16.41;100.00;98389.09;15287911;19;20014;-59
2022/06/13 01:42:02;;;;;;;4.03;1.30;;;;;;;16.44;100.00;98390.56;15279967;19;20011;-57
2022/06/13 01:47:15;;;;;;;2.67;1.20;;;;;;;16.40;100.00;98413.78;15288572;19;20017;-58
2022/06/13 01:52:31;;;;;;;5.82;1.10;;;;;;;16.34;100.00;98412.69;15275365;19;20022;-59
2022/06/13 01:57:42;;;;;;;4.40;1.23;;;;;;;16.29;100.00;98424.16;15286059;19;20022;-59
2022/06/13 02:02:56;;;;;;;2.67;1.08;;;;;;;16.13;100.00;98424.47;15282510;19;20034;-54
2022/06/13 02:08:08;;;;;;;3.97;1.20;;;;;;;15.95;100.00;98425.78;15286851;19;20039;-58
2022/06/13 02:13:35;;;;;;;3.50;1.10;;;;;;;15.90;100.00;98433.69;15274513;19;20033;-58
2022/06/13 02:18:52;;;;;;;5.25;1.33;;;;;;;15.87;100.00;98431.34;15284407;19;20015;-60
2022/06/13 02:24:00;;;;;;;2.92;1.20;;;;;;;15.67;100.00;98439.28;15275009;19;20019;-56
2022/06/13 02:29:10;;;;;;;3.08;1.20;;;;;;;15.51;100.00;98429.50;15282301;19;20015;-58
2022/06/13 02:34:23;;;;;;;4.53;1.38;;;;;;;15.50;100.00;98425.09;15277486;19;20011;-59
2022/06/13 02:39:37;;;;;;;3.42;1.08;;;;;;;15.38;100.00;98422.06;15284249;19;20035;-55
2022/06/13 02:44:47;;;;;;;3.15;1.25;;;;;;;15.34;100.00;98435.19;15271647;19;20011;-60
2022/06/13 02:50:02;;;;;;;4.97;1.42;;;;;;;15.37;100.00;98426.66;15279440;19;20360;-59
2022/06/13 02:55:12;;;;;;;4.00;1.23;;;;;;;15.33;100.00;98424.50;15282689;19;20014;-59
2022/06/13 03:00:36;;;;;;;2.83;1.20;;;;;;;15.25;100.00;98441.75;15277060;19;20036;-59
2022/06/13 03:05:54;;;;;;;3.20;1.05;;;;;;;15.21;100.00;98433.16;15281802;19;20014;-56
2022/06/13 03:11:05;;;;;;;3.10;1.20;;;;;;;15.15;100.00;98430.34;15274248;19;20424;-54
2022/06/13 03:16:19;;;;;;;5.03;1.27;;;;;;;15.10;100.00;98429.09;15274650;19;20006;-55
2022/06/13 03:21:32;;;;;;;4.10;1.30;;;;;;;15.00;100.00;98441.25;15276846;19;20010;-60
2022/06/13 03:26:42;;;;;;;6.68;1.48;;;;;;;14.88;100.00;98449.00;15280569;19;20038;-55
2022/06/13 03:31:52;;;;;;;3.97;1.23;;;;;;;14.73;100.00;98459.88;15271210;19;20026;-56
2022/06/13 03:37:08;;;;;;;4.03;1.48;;;;;;;14.69;100.00;98462.13;15275800;19;20546;-56
2022/06/13 03:42:18;;;;;;;5.65;1.65;;;;;;;14.63;100.00;98468.28;15278333;19;20085;-51
2022/06/13 03:47:33;;;;;;;6.15;1.60;;;;;;;14.43;100.00;98467.97;15273725;19;20010;-54
2022/06/13 03:52:45;;;;;;;5.07;1.60;;;;;;;14.27;100.00;98482.53;15275741;19;20014;-53
2022/06/13 03:57:57;;;;;;;5.18;1.52;;;;;;;14.30;100.00;98474.00;15279740;19;20018;-60
2022/06/13 04:03:03;;;;;;;4.97;1.60;;;;;;;14.21;100.00;98480.53;15271258;19;20359;-53
2022/06/13 04:08:13;;;;;;;6.75;1.80;;;;;;;14.18;100.00;98487.19;15280093;19;20349;-54
2022/06/13 04:13:38;;;;;;;5.63;1.80;;;;;;;14.11;100.00;98480.81;15275826;19;20039;-54
2022/06/13 04:18:57;;;;;;;6.47;1.70;;;;;;;14.11;100.00;98481.63;15272936;19;20018;-50
2022/06/13 04:24:23;;;;;;;6.13;1.73;;;;;;;14.02;100.00;98483.56;15273912;19;20042;-50
2022/06/13 04:29:36;;;;;;;5.00;1.50;;;;;;;14.01;100.00;98487.31;15273380;19;20472;-54
2022/06/13 04:34:46;;;;;;;4.68;1.60;;;;;;;13.97;100.00;98490.56;15262887;19;20018;-51
2022/06/13 04:40:00;;;;;;;3.88;1.60;;;;;;;14.03;100.00;98490.69;15277165;19;20381;-56
2022/06/13 04:45:16;;;;;;;5.65;1.73;;;;;;;14.10;100.00;98501.63;15276302;19;20374;-54
2022/06/13 04:50:26;;;;;;;5.72;1.65;;;;;;;14.14;100.00;98507.53;15276615;19;20483;-55
2022/06/13 04:55:39;;;;;;;6.05;1.80;;;;;;;14.23;100.00;98503.72;15271367;19;20094;-55
2022/06/13 05:00:47;;;;;;;5.97;1.60;;;;;;;14.29;100.00;98507.56;15274616;19;20011;-53
2022/06/13 05:05:56;;;;;;;5.82;1.60;;;;;;;14.41;100.00;98508.78;15270486;19;20476;-56
2022/06/13 05:11:09;;;;;;;5.93;1.75;;;;;;;14.58;100.00;98508.66;15270552;19;20079;-54
2022/06/13 05:16:27;;;;;;;5.38;1.70;;;;;;;14.72;100.00;98510.56;15274361;19;20014;-55
2022/06/13 05:21:44;;;;;;;5.13;1.65;;;;;;;14.59;100.00;98519.28;15269434;19;20017;-54
2022/06/13 05:26:51;;;;;;;4.43;1.40;;;;;;;14.71;100.00;98517.03;15264790;19;20685;-55
2022/06/13 05:31:56;;;;;;;4.18;1.50;;;;;;;14.81;100.00;98524.91;15270050;19;20015;-53
2022/06/13 05:37:02;;;;;;;4.25;1.45;;;;;;;14.85;100.00;98533.50;15285304;19;20035;-53
2022/06/13 05:42:13;;;;;;;4.18;1.50;;;;;;;14.98;100.00;98544.53;15278744;19;20475;-57
2022/06/13 05:47:21;;;;;;;3.53;1.40;;;;;;;14.89;100.00;98554.63;15287436;19;20010;-56
2022/06/13 05:52:26;;;;;;;6.07;1.77;;;;;;;15.01;100.00;98556.88;15279921;19;20018;-59
2022/06/13 05:57:34;;;;;;;5.07;1.65;;;;;;;15.20;100.00;98558.19;15278284;19;20015;-61
2022/06/13 06:02:39;;;;;;;4.72;1.42;;;;;;;15.20;100.00;98561.75;15280481;19;20022;-61
2022/06/13 06:07:45;;;;;;;4.57;1.67;;;;;;;15.06;100.00;98563.44;15285945;19;20353;-57
2022/06/13 06:12:52;;;;;;;5.50;1.80;;;;;;;15.16;100.00;98565.00;15272752;19;20030;-56
2022/06/13 06:17:58;;;;;;;5.25;1.92;;;;;;;15.10;100.00;98556.63;15286437;19;20023;-61
2022/06/13 06:23:03;;;;;;;8.50;2.05;;;;;;;15.05;100.00;98552.78;15280283;19;20423;-60
2022/06/13 06:28:12;;;;;;;7.97;1.83;;;;;;;15.27;100.00;98544.72;15278209;19;20429;-60
2022/06/13 06:33:17;;;;;;;6.93;1.63;;;;;;;15.52;100.00;98553.38;15279451;19;20376;-60
2022/06/13 06:38:24;;;;;;;8.13;1.40;;;;;;;15.82;100.00;98553.28;15285577;19;20011;-60
2022/06/13 06:43:32;;;;;;;6.80;1.60;;;;;;;16.07;100.00;98539.38;15275545;19;20038;-61
2022/06/13 06:48:39;;;;;;;5.07;1.80;;;;;;;16.33;100.00;98523.31;15282378;19;20367;-59
2022/06/13 07:04:22;;;;;;;3.97;1.20;;;;;;;16.73;100.00;98527.38;15272309;19;20033;-63
2022/06/13 07:09:28;;;;;;;3.50;1.33;;;;;;;16.89;100.00;98537.13;15279279;19;20848;-64
2022/06/13 07:14:37;;;;;;;3.97;1.30;;;;;;;16.78;100.00;98536.63;15271604;19;20123;-61
2022/06/13 07:19:44;;;;;;;4.53;1.38;;;;;;;16.86;100.00;98527.47;15282881;19;20031;-60
2022/06/13 07:24:50;;;;;;;4.20;1.40;;;;;;;17.10;100.00;98537.06;15278608;19;20377;-61
2022/06/13 07:29:57;;;;;;;5.80;1.58;;;;;;;17.13;100.00;98548.59;15281419;19;20037;-59
2022/06/13 07:35:03;;;;;;;5.40;1.58;;;;;;;17.14;100.00;98558.44;15274382;19;20011;-60
2022/06/13 07:40:10;;;;;;;3.78;1.35;;;;;;;17.34;100.00;98553.13;15281500;19;20021;-60
2022/06/13 07:45:22;;;;;;;5.38;1.55;;;;;;;17.33;100.00;98554.16;15281137;19;20018;-61
2022/06/13 07:50:47;;;;;;;4.13;1.60;;;;;;;17.31;100.00;98558.97;15276016;19;20019;-61
2022/06/13 07:55:52;;;;;;;4.35;1.40;;;;;;;17.25;100.00;98558.72;15279107;19;20483;-61
2022/06/13 08:01:00;;;;;;;7.85;1.60;;;;;;;17.35;100.00;98554.78;15277039;19;20475;-61
2022/06/13 08:06:07;;;;;;;4.63;1.50;;;;;;;17.51;100.00;98546.28;15272249;19;20022;-61
2022/06/13 08:11:15;;;;;;;5.38;1.50;;;;;;;17.94;100.00;98533.41;15278815;19;20026;-60
2022/06/13 08:16:23;;;;;;;4.25;1.30;;;;;;;18.11;100.00;98545.63;15278768;19;20029;-61
2022/06/13 08:21:28;;;;;;;4.15;1.40;;;;;;;18.02;100.00;98552.34;15275058;19;20412;-61
2022/06/13 08:26:33;;;;;;;4.68;1.40;;;;;;;18.17;100.00;98552.97;15278452;19;20511;-62
2022/06/13 08:31:41;;;;;;;3.58;1.30;;;;;;;18.31;100.00;98544.81;15276401;19;20025;-61
2022/06/13 08:36:50;;;;;;;4.03;1.50;;;;;;;18.63;100.00;98556.78;15270279;19;20017;-62
2022/06/13 08:41:59;;;;;;;4.45;1.50;;;;;;;18.59;100.00;98541.06;15276324;19;20021;-61
2022/06/13 08:47:16;;;;;;;3.45;1.42;;;;;;;18.86;100.00;98539.13;15278576;19;20014;-62
2022/06/13 08:52:28;;;;;;;4.00;1.42;;;;;;;19.25;100.00;98539.28;15269677;19;20038;-61
2022/06/13 08:57:36;;;;;;;4.13;1.55;;;;;;;19.04;100.00;98543.97;15277883;19;20758;-61
2022/06/13 09:02:51;;;;;;;3.63;1.50;;;;;;;18.84;100.00;98540.41;15273515;19;20014;-61
2022/06/13 09:08:05;;;;;;;3.47;1.48;;;;;;;18.32;100.00;98541.03;15277135;19;20018;-62
2022/06/13 09:13:17;;;;;;;5.63;1.67;;;;;;;17.73;100.00;98559.75;15279559;19;20057;-59
2022/06/13 09:18:33;;;;;;;5.97;1.63;;;;;;;17.53;100.00;98571.44;15291765;19;20503;-62
2022/06/13 09:23:48;;;;;;;5.47;1.70;;;;;;;17.41;100.00;98570.31;15278543;19;20907;-61
2022/06/13 09:28:57;;;;;;;4.25;1.58;;;;;;;17.44;100.00;98553.59;15290491;19;20026;-62
2022/06/13 09:34:12;;;;;;;4.30;1.50;;;;;;;17.47;100.00;98561.31;15283223;19;20010;-63
2022/06/13 09:39:18;;;;;;;5.68;1.58;;;;;;;17.63;100.00;98572.94;15287816;19;20016;-62
2022/06/13 09:44:35;;;;;;;5.22;1.60;;;;;;;17.69;100.00;98577.56;15266848;19;20042;-62
2022/06/13 09:49:53;;;;;;;5.47;1.70;;;;;;;17.80;100.00;98566.09;15288115;19;20014;-63
2022/06/13 09:55:05;;;;;;;6.00;1.60;;;;;;;17.87;100.00;98571.56;15283125;19;20038;-63
2022/06/13 10:00:16;;;;;;;3.47;1.38;;;;;;;16.34;100.00;98622.06;15280705;19;20601;-59
2022/06/13 10:05:37;;;;;;;6.30;1.95;;;;;;;15.43;100.00;98625.09;15283222;19;20340;-59
2022/06/13 10:10:48;;;;;;;5.22;1.60;;;;;;;14.75;100.00;98645.81;15284234;19;20018;-56
2022/06/13 10:21:54;;;;;;;2.83;1.30;;;;;;;14.43;100.00;98653.13;15285049;19;20049;-57
2022/06/13 10:27:05;;;;;;;3.05;1.30;;;;;;;14.58;100.00;98644.22;15284111;19;20373;-59
2022/06/13 10:32:19;;;;;;;;;;;;;;;14.64;100.00;98627.22;15276509;19;20022;-61
2022/06/13 10:37:38;;;;;;;3.70;1.40;;;;;;;14.81;100.00;98652.38;15284798;19;19929;-59
2022/06/13 10:42:48;;;;;;;4.53;1.58;;;;;;;15.22;100.00;98641.09;15281751;19;20015;-61
2022/06/13 10:47:58;;;;;;;3.83;1.15;;;;;;;15.56;100.00;98630.72;15277529;19;20505;-57
2022/06/13 10:53:11;;;;;;;4.38;1.08;;;;;;;15.72;100.00;98649.50;15278170;19;20010;-61
2022/06/13 10:58:21;;;;;;;3.15;0.95;;;;;;;15.69;100.00;98651.78;15284023;19;20403;-58
2022/06/13 11:03:26;;;;;;;3.33;1.13;;;;;;;16.02;100.00;98635.06;15273854;19;20014;-59
2022/06/13 11:08:34;;;;;;;3.30;1.20;;;;;;;15.89;100.00;98641.19;15283883;19;20026;-58
2022/06/13 11:13:43;;;;;;;2.45;1.00;;;;;;;16.07;100.00;98637.22;15279408;19;20034;-57
2022/06/13 11:24:38;;;;;;;2.50;0.90;;;;;;;16.46;100.00;98646.84;15271907;19;20085;-59
2022/06/13 11:29:43;;;;;;;1.50;0.90;;;;;;;16.58;100.00;98639.84;15282418;19;20482;-58
2022/06/13 11:34:48;;;;;;;2.70;1.05;;;;;;;16.60;100.00;98640.50;15267796;19;20014;-62
2022/06/13 11:39:56;;;;;;;2.38;1.00;;;;;;;16.74;100.00;98633.28;15280549;19;20022;-63
2022/06/13 11:45:18;;;;;;;3.70;0.90;;;;;;;16.99;100.00;98632.88;15276452;19;20018;-60
2022/06/13 11:50:26;;;;;;;2.42;1.00;;;;;;;17.28;100.00;98628.28;15272706;19;20038;-63
2022/06/13 11:55:39;;;;;;;3.13;1.00;;;;;;;17.71;100.00;98635.41;15276189;19;20013;-61
2022/06/13 12:00:52;;;;;;;2.20;0.90;;;;;;;17.71;100.00;98635.41;15277636;19;20021;-63
2022/06/13 12:06:01;;;;;;;3.22;0.88;;;;;;;18.05;100.00;98627.41;15271195;19;20022;-63
2022/06/13 12:11:23;;;;;;;2.05;0.90;;;;;;;18.21;79.83;98623.47;15277884;19;20054;-63
2022/06/13 12:16:36;;;;;;;2.67;0.90;;;;;;;18.92;79.62;98616.63;15275928;19;20031;-64
2022/06/13 12:21:49;;;;;;;2.08;0.80;;;;;;;19.21;68.17;98620.81;15276773;19;20135;-61
2022/06/13 12:27:03;;;;;;;1.50;0.77;;;;;;;18.90;66.42;98625.03;15276116;19;20010;-63
2022/06/13 12:32:17;;;;;;;3.90;1.08;;;;;;;18.62;68.58;98631.50;15273781;19;20417;-63
2022/06/13 12:37:31;;;;;;;4.05;1.05;;;;;;;18.37;74.92;98644.06;15273222;19;20010;-64
2022/06/13 12:42:57;;;;;;;2.75;1.00;;;;;;;18.56;82.68;98645.16;15273205;19;20032;-63
2022/06/13 12:48:19;;;;;;;2.58;1.00;;;;;;;18.40;93.00;98635.47;15291404;19;20030;-64
2022/06/13 12:53:44;;;;;;;2.92;1.23;;;;;;;18.34;92.53;98639.88;15284711;19;20031;-63
2022/06/13 12:59:10;;;;;;;2.60;1.17;;;;;;;18.41;87.33;98627.06;15284219;19;20464;-62
2022/06/13 13:04:41;;;;;;;3.90;1.33;;;;;;;18.95;74.19;98649.00;15285268;19;20043;-63
2022/06/13 13:10:00;;;;;;;3.72;1.40;;;;;;;18.96;65.87;98688.91;15281151;19;20050;-63
2022/06/13 13:15:20;;;;;;;2.58;1.00;;;;;;;19.42;65.09;98653.56;15279946;19;20018;-63
2022/06/13 13:20:35;;;;;;;1.80;0.90;;;;;;;19.49;64.79;98659.84;15288352;19;20332;-63
2022/06/13 13:25:46;;;;;;;4.07;1.20;;;;;;;19.15;64.09;98648.13;15284258;19;20014;-62
2022/06/13 13:31:00;;;;;;;5.60;1.30;;;;;;;19.15;61.54;98645.41;15282584;19;20011;-63
2022/06/13 13:36:14;;;;;;;3.13;1.10;;;;;;;19.17;58.34;98646.84;15281621;19;20038;-62
2022/06/13 13:41:27;;;;;;;2.50;1.10;;;;;;;19.42;58.26;98653.56;15282020;19;20057;-62
2022/06/13 13:46:42;;;;;;;2.67;1.10;;;;;;;19.56;56.57;98652.50;15287029;19;20030;-62
2022/06/13 13:51:54;;;;;;;2.53;1.05;;;;;;;19.61;56.73;98652.66;15282285;19;20018;-62
2022/06/13 13:57:07;;;;;;;3.22;0.90;;;;;;;19.80;55.80;98658.31;15282866;19;20010;-64
2022/06/13 14:02:32;;;;;;;5.70;1.10;;;;;;;20.29;55.88;98642.31;15275071;19;20007;-64
2022/06/13 14:08:02;;;;;;;3.45;1.08;;;;;;;20.27;54.01;98664.44;15259541;19;20038;-63
2022/06/13 14:13:13;;;;;;;4.03;1.00;;;;;;;19.91;55.53;98652.19;15281360;19;20031;-63
2022/06/13 14:18:22;;;;;;;2.88;1.10;;;;;;;20.40;55.04;98638.06;15280680;19;20373;-64
2022/06/13 14:23:39;;;;;;;3.95;0.90;;;;;;;19.85;53.22;98653.00;15281480;19;20031;-64
2022/06/13 14:28:49;;;;;;;3.90;1.10;;;;;;;19.53;54.69;98647.44;15284593;19;20340;-64
2022/06/13 14:39:39;;;;;;;3.53;1.00;;;;;;;19.19;54.35;98649.41;15283326;19;20441;-64
2022/06/13 14:44:55;;;;;;;2.40;1.02;;;;;;;18.79;55.78;98659.22;15279501;19;20022;-62
2022/06/13 14:50:00;;;;;;;4.85;1.02;;;;;;;18.79;57.61;98648.31;15276374;19;20022;-64
2022/06/13 14:55:22;;;;;;;2.47;0.90;;;;;;;19.62;55.06;98648.88;15276205;19;20017;-64
2022/06/13 15:00:33;;;;;;;2.50;1.08;;;;;;;19.67;55.30;98640.03;15280274;19;20054;-65
2022/06/13 15:05:50;;;;;;;;;;;;;;;19.80;53.33;98650.94;15267105;19;20007;-63
2022/06/13 15:11:01;;;;;;;3.45;0.98;;;;;;;19.51;54.52;98647.66;15278025;19;19926;-63
2022/06/13 15:16:10;;;;;;;4.25;1.02;;;;;;;19.03;57.12;98667.06;15273995;19;20027;-61
2022/06/13 15:21:20;;;;;;;3.55;1.10;;;;;;;18.65;61.96;98687.56;15272265;19;20021;-60
2022/06/13 15:26:46;;;;;;;4.88;1.15;;;;;;;18.15;71.46;98687.84;15277554;19;20011;-62
2022/06/13 15:31:54;;;;;;;5.13;1.08;;;;;;;17.91;83.06;98702.81;15276607;19;20022;-62
2022/06/13 15:37:02;;;;;;;4.35;1.30;;;;;;;17.70;83.73;98710.03;15269144;19;20034;-64
2022/06/13 15:42:23;;;;;;;4.68;1.55;;;;;;;17.60;85.12;98717.72;15274938;19;20010;-62
2022/06/13 15:47:33;;;;;;;5.20;1.58;;;;;;;17.65;89.33;98707.91;15278961;19;20010;-60
2022/06/13 15:52:40;;;;;;;3.65;1.13;;;;;;;17.89;89.95;98726.69;15270543;19;20029;-59
2022/06/13 15:57:51;;;;;;;5.78;1.30;;;;;;;17.67;87.64;98729.53;15277093;19;20467;-56
2022/06/13 16:02:58;;;;;;;4.33;1.30;;;;;;;17.36;86.75;98737.06;15271795;19;20042;-56
2022/06/13 16:08:07;;;;;;;5.22;1.20;;;;;;;17.37;89.22;98732.44;15269963;19;20026;-58
2022/06/13 16:13:24;;;;;;;3.00;1.13;;;;;;;17.48;93.83;98731.06;15271954;19;20721;-57
2022/06/13 16:18:37;;;;;;;3.38;0.98;;;;;;;18.01;71.60;98728.69;15276267;19;20018;-58
2022/06/13 16:23:48;;;;;;;3.10;0.90;;;;;;;18.60;68.93;98731.00;15265481;19;20015;-57
2022/06/13 16:28:57;;;;;;;3.97;1.00;;;;;;;18.47;70.37;98739.97;15275189;19;20014;-54
2022/06/13 16:34:03;;;;;;;1.20;0.80;;;;;;;18.48;66.67;98745.25;15269994;19;20026;-56
2022/06/13 16:39:11;;;;;;;1.42;0.68;;;;;;;18.78;61.62;98747.63;15277425;19;20010;-58
2022/06/13 16:44:27;;;;;;;2.85;0.90;;;;;;;18.51;59.11;98744.00;15263369;19;20018;-55
2022/06/13 16:49:37;;;;;;;1.77;0.75;;;;;;;18.06;62.13;98744.44;15274877;19;20051;-56
2022/06/13 16:54:49;;;;;;;1.50;0.60;;;;;;;17.64;63.84;98744.34;15271516;19;20034;-56
2022/06/13 17:00:00;;;;;;;1.08;0.60;;;;;;;17.50;63.55;98757.06;15274021;19;20025;-52
2022/06/13 17:05:31;;;;;;;2.15;0.60;;;;;;;17.41;67.39;98753.63;15270976;19;20728;-58
2022/06/13 17:10:59;;;;;;;1.45;0.60;;;;;;;17.37;66.86;98752.34;15274967;19;20047;-58
2022/06/13 17:16:09;;;;;;;2.97;0.65;;;;;;;17.31;69.00;98755.84;15257567;19;20026;-55
2022/06/13 17:21:17;;;;;;;1.58;0.63;;;;;;;17.10;69.90;98751.28;15271376;19;20014;-54
2022/06/13 17:37:01;;;;;;;1.33;0.60;;;;;;;17.39;70.84;98743.97;15280200;19;20384;-52
2022/06/13 17:42:09;;;;;;;1.52;0.55;;;;;;;17.33;68.37;98769.28;15282490;19;20026;-53
2022/06/13 17:47:17;;;;;;;2.88;0.60;;;;;;;17.40;66.99;98759.28;15278068;19;20557;-55
2022/06/13 17:52:22;;;;;;;0.73;0.35;;;;;;;17.22;71.60;98776.97;15284128;19;20023;-54
2022/06/13 17:57:30;;;;;;;0.85;0.60;;;;;;;17.25;71.39;98784.72;15259976;19;20363;-59
2022/06/13 18:02:39;;;;;;;2.17;0.70;;;;;;;17.52;70.42;98776.78;15276307;19;20475;-55
2022/06/13 18:07:47;;;;;;;0.90;0.47;;;;;;;17.71;71.99;98782.56;15285151;19;20090;-55
2022/06/13 18:12:52;;;;;;;0.77;0.50;;;;;;;17.75;73.66;98774.84;15281459;19;20045;-58
2022/06/13 18:18:03;;;;;;;1.42;0.47;;;;;;;17.58;72.35;98782.47;15242547;19;20018;-55
2022/06/13 18:23:09;;;;;;;2.38;0.77;;;;;;;17.55;76.65;98786.41;15280932;19;20130;-56
2022/06/13 18:28:15;;;;;;;0.82;0.50;;;;;;;17.48;75.24;98791.81;15286888;19;20022;-57
2022/06/13 18:33:23;;;;;;;2.25;0.50;;;;;;;17.23;73.23;98799.56;15257161;19;20029;-58
2022/06/13 18:38:29;;;;;;;2.85;0.73;;;;;;;17.02;74.67;98798.53;15285066;19;20409;-58
2022/06/13 18:43:39;;;;;;;1.52;0.60;;;;;;;16.74;73.09;98796.53;15280772;19;20022;-58
2022/06/13 18:48:47;;;;;;;1.77;0.50;;;;;;;16.53;78.29;98799.22;15278974;19;20007;-60
2022/06/13 18:53:52;;;;;;;1.40;0.60;;;;;;;16.33;86.28;98811.53;15278929;19;20018;-61
2022/06/13 18:58:57;;;;;;;1.30;0.45;;;;;;;16.07;87.46;98814.72;15281192;19;20018;-59
2022/06/13 19:04:10;;;;;;;1.75;0.52;;;;;;;15.95;93.63;98813.50;15278075;19;20011;-61
2022/06/13 19:09:18;;;;;;;1.92;0.55;;;;;;;15.80;99.53;98822.44;15282685;19;20007;-58
2022/06/13 19:14:26;;;;;;;1.02;0.50;;;;;;;15.70;100.00;98816.44;15279025;19;20085;-61
2022/06/13 19:19:36;;;;;;;0.95;0.50;;;;;;;15.52;100.00;98825.75;15282169;19;20026;-59
2022/06/13 19:24:42;;;;;;;1.60;0.40;;;;;;;15.33;100.00;98831.69;15269672;19;20022;-59
2022/06/13 19:29:50;;;;;;;1.55;0.50;;;;;;;15.22;100.00;98835.69;15283948;19;20006;-55
2022/06/13 19:35:02;;;;;;;1.67;0.65;;;;;;;15.17;100.00;98848.94;15276999;19;20827;-58
2022/06/13 19:40:09;;;;;;;1.63;0.60;;;;;;;15.09;100.00;98845.28;15277565;19;20010;-54
2022/06/13 19:45:17;;;;;;;1.73;0.63;;;;;;;15.03;100.00;98848.69;15277351;19;20018;-53
2022/06/13 19:50:27;;;;;;;1.25;0.57;;;;;;;15.01;100.00;98855.34;15282021;19;20018;-55
2022/06/13 19:55:35;;;;;;;2.03;0.73;;;;;;;14.96;100.00;98858.59;15267726;19;20019;-56
2022/06/13 20:00:43;;;;;;;1.73;0.65;;;;;;;14.92;100.00;98868.09;15281744;19;20027;-51
2022/06/13 20:11:14;;;;;;;1.58;0.70;;;;;;;14.75;100.00;98872.78;15277443;19;20016;-52
2022/06/13 20:16:21;;;;;;;1.42;0.57;;;;;;;14.65;100.00;98878.38;15277271;19;20018;-55
2022/06/13 20:21:31;;;;;;;0.88;0.40;;;;;;;14.62;100.00;98881.44;15277914;19;20344;-54
2022/06/13 20:26:37;;;;;;;0.95;0.50;;;;;;;14.55;100.00;98883.16;15270490;19;20038;-53
2022/06/13 20:31:45;;;;;;;1.33;0.60;;;;;;;14.45;100.00;98886.09;15275708;19;20010;-51
2022/06/13 20:36:54;;;;;;;0.70;0.60;;;;;;;14.35;100.00;98894.41;15274614;19;20472;-54
2022/06/13 20:42:03;;;;;;;1.20;0.60;;;;;;;14.26;100.00;98890.03;15270292;19;20542;-52
2022/06/13 20:47:10;;;;;;;3.95;0.70;;;;;;;14.17;100.00;98892.75;15278161;19;20025;-51
2022/06/13 20:52:18;;;;;;;1.48;0.60;;;;;;;14.06;100.00;98895.00;15273491;19;20018;-50
2022/06/13 20:57:23;;;;;;;1.00;0.50;;;;;;;13.97;100.00;98895.03;15273501;19;20014;-57
2022/06/13 21:02:29;;;;;;;1.08;0.50;;;;;;;13.86;100.00;98896.22;15267177;19;20011;-57
2022/06/13 21:07:37;;;;;;;2.65;0.80;;;;;;;13.73;100.00;98901.28;15286808;19;20019;-56
2022/06/13 21:12:45;;;;;;;1.23;0.70;;;;;;;13.63;100.00;98900.63;15289864;19;20014;-56
2022/06/13 21:17:51;;;;;;;1.48;0.60;;;;;;;13.53;100.00;98901.63;15282571;19;20455;-54
2022/06/13 21:23:01;;;;;;;1.83;0.60;;;;;;;13.45;100.00;98900.78;15287805;19;20010;-53
2022/06/13 21:28:08;;;;;;;3.47;0.80;;;;;;;13.40;100.00;98901.28;15286926;19;20027;-52
2022/06/13 21:33:13;;;;;;;1.30;0.50;;;;;;;13.31;100.00;98891.44;15279169;19;20359;-55
2022/06/13 21:38:21;;;;;;;0.52;0.50;;;;;;;13.24;100.00;98892.09;15284014;19;20011;-53
2022/06/13 21:43:28;;;;;;;1.27;0.70;;;;;;;13.17;100.00;98887.53;15285529;19;20023;-53
2022/06/13 21:48:33;;;;;;;2.60;0.70;;;;;;;13.07;100.00;98891.22;15285180;19;20823;-50
2022/06/13 21:53:43;;;;;;;1.85;0.80;;;;;;;13.01;100.00;98888.34;15285031;19;20029;-57
2022/06/13 21:58:48;;;;;;;1.70;0.80;;;;;;;12.98;100.00;98892.22;15286587;19;20018;-50
2022/06/13 22:03:53;;;;;;;1.60;0.60;;;;;;;12.93;100.00;98895.41;15276832;19;20014;-51
2022/06/13 22:09:01;;;;;;;0.77;0.50;;;;;;;12.87;100.00;98900.63;15287014;19;20129;-51
2022/06/13 22:14:06;;;;;;;3.53;0.70;;;;;;;12.78;100.00;98897.91;15282748;19;20042;-57
2022/06/13 22:19:11;;;;;;;1.35;0.70;;;;;;;12.67;100.00;98894.66;15282337;19;20014;-54
2022/06/13 22:24:19;;;;;;;0.93;0.60;;;;;;;12.54;100.00;98895.94;15281803;19;20018;-57
2022/06/13 22:29:24;;;;;;;2.25;0.60;;;;;;;12.52;100.00;98908.81;15282788;19;20031;-51
2022/06/13 22:34:30;;;;;;;3.15;0.52;;;;;;;12.52;100.00;98908.81;15274340;19;20015;-56
2022/06/13 22:39:37;;;;;;;1.35;0.70;;;;;;;12.53;100.00;98905.06;15286556;19;20014;-53
2022/06/13 22:44:42;;;;;;;0.85;0.40;;;;;;;12.52;100.00;98903.41;15280064;19;20015;-51
2022/06/13 22:49:51;;;;;;;2.33;0.70;;;;;;;12.47;100.00;98911.13;15283852;19;20018;-57
2022/06/13 22:55:01;;;;;;;0.98;0.70;;;;;;;12.42;100.00;98908.06;15275404;19;20019;-56
2022/06/13 23:00:08;;;;;;;1.73;0.60;;;;;;;12.21;100.00;98900.38;15283224;19;20019;-55
2022/06/13 23:05:21;;;;;;;1.67;0.70;;;;;;;12.07;100.00;98901.78;15276942;19;20015;-50
2022/06/13 23:10:29;;;;;;;2.45;0.82;;;;;;;11.94;100.00;98907.59;15267987;19;20014;-55
2022/06/13 23:15:34;;;;;;;1.95;0.55;;;;;;;11.82;100.00;98909.69;15269358;19;20042;-54
2022/06/13 23:20:39;;;;;;;1.73;0.70;;;;;;;11.72;100.00;98918.72;15274968;19;20035;-55
2022/06/13 23:25:47;;;;;;;1.35;0.70;;;;;;;11.58;100.00;98916.59;15270669;19;20471;-55
2022/06/13 23:30:51;;;;;;;1.35;0.50;;;;;;;11.39;100.00;98913.03;15277588;19;20014;-54
2022/06/13 23:35:57;;;;;;;1.13;0.60;;;;;;;11.28;100.00;98915.97;15277541;19;20073;-51
2022/06/13 23:41:06;;;;;;;1.63;0.70;;;;;;;11.27;100.00;98924.22;15275123;19;20502;-58
2022/06/13 23:46:11;;;;;;;1.35;0.65;;;;;;;11.25;100.00;98913.56;15276718;19;20023;-56
2022/06/13 23:51:17;;;;;;;1.25;0.60;;;;;;;11.23;100.00;98924.53;15280454;19;20010;-57
2022/06/13 23:56:25;;;;;;;1.65;0.60;;;;;;;11.20;100.00;98913.22;15271878;19;20114;-57
